Time;durP1;ratioP1;P1;durP2;ratioP2;P2;SDS_P1;SDS_P2;PMS_P1;PMS_P2;Temp;Humidity;BMP_temperature;BMP_pressure;BME280_temperature;BME280_humidity;BME280_pressure;Samples;Min_cycle;Max_cycle;Signal;HPM_P1;HPM_P2
2021/12/18 00:01:34;;;;;;;;;32.00;26.25;;;;;6.09;91.23;103508.34;6242589;22;45259;-77
2021/12/18 00:04:00;;;;;;;;;36.75;31.50;;;;;5.59;91.06;103427.31;6243313;22;46026;-77
2021/12/18 00:06:27;;;;;;;;;31.00;25.50;;;;;6.05;91.09;103499.56;6243424;22;45181;-78
2021/12/18 00:08:53;;;;;;;;;33.25;26.75;;;;;6.06;91.41;103505.69;6242537;22;45259;-78
2021/12/18 00:11:18;;;;;;;;;34.50;32.50;;;;;6.05;91.20;103506.53;6243218;22;45335;-77
2021/12/18 00:13:44;;;;;;;;;37.50;30.50;;;;;5.75;91.27;103454.59;6214978;22;48128;-76
2021/12/18 00:16:09;;;;;;;;;24.75;24.75;;;;;5.86;90.90;103459.19;6216199;22;45281;-78
2021/12/18 00:18:35;;;;;;;;;34.25;29.25;;;;;6.21;90.88;103500.78;6243483;22;45325;-78
2021/12/18 00:21:02;;;;;;;;;38.00;32.75;;;;;6.15;90.62;103484.16;6215340;22;45423;-77
2021/12/18 00:23:27;;;;;;;;;43.25;36.25;;;;;6.09;90.21;103471.84;6243087;22;46209;-76
2021/12/18 00:25:53;;;;;;;;;38.25;32.00;;;;;5.98;90.26;103434.25;6243005;22;45330;-76
2021/12/18 00:28:19;;;;;;;;;38.25;33.50;;;;;6.31;89.69;103478.41;6243170;22;45189;-77
2021/12/18 00:30:44;;;;;;;;;36.50;33.00;;;;;6.51;89.48;103498.78;6243207;22;45173;-77
2021/12/18 00:33:10;;;;;;;;;30.25;28.50;;;;;6.31;89.24;103475.78;6242936;22;45271;-77
2021/12/18 00:35:36;;;;;;;;;39.75;29.50;;;;;6.53;89.44;103503.16;6242708;22;45237;-79
2021/12/18 00:38:04;;;;;;;;;40.75;36.50;;;;;6.46;89.12;103486.50;6215588;22;45312;-79
2021/12/18 00:40:42;;;;;;;;;36.00;34.00;;;;;6.60;88.91;103506.78;6243375;22;45253;-78
2021/12/18 00:43:22;;;;;;;;;54.25;43.75;;;;;6.49;89.24;103477.00;6242836;22;45311;-77
2021/12/18 00:45:47;;;;;;;;;48.75;39.25;;;;;6.75;88.87;103503.56;6242477;22;45207;-78
2021/12/18 00:48:12;;;;;;;;;48.75;37.00;;;;;6.78;88.27;103507.09;6243213;22;45243;-79
2021/12/18 00:50:38;;;;;;;;;40.25;35.75;;;;;6.82;87.88;103506.34;6243222;22;45181;-79
2021/12/18 00:53:03;;;;;;;;;44.25;35.50;;;;;6.82;87.75;103510.66;6243047;22;45208;-78
2021/12/18 00:55:29;;;;;;;;;39.25;34.25;;;;;6.74;87.72;103515.75;6243317;22;45288;-79
2021/12/18 00:57:54;;;;;;;;;45.25;36.50;;;;;6.27;88.06;103451.38;6242907;22;45466;-78
2021/12/18 01:00:24;;;;;;;;;51.00;38.00;;;;;6.50;88.33;103518.75;6242814;22;45247;-78
2021/12/18 01:02:52;;;;;;;;;42.50;35.75;;;;;6.42;88.86;103516.00;6243089;22;45226;-78
2021/12/18 01:05:18;;;;;;;;;40.50;36.50;;;;;6.20;88.74;103491.22;6242611;22;45358;-79
2021/12/18 01:07:44;;;;;;;;;51.00;39.00;;;;;6.18;88.65;103489.41;6243416;22;45216;-78
2021/12/18 01:12:42;;;;;;;;;46.25;39.50;;;;;6.14;89.31;103513.66;6238078;22;45941;-78
2021/12/18 01:23:04;;;;;;;;;50.25;38.50;;;;;5.93;89.67;103511.44;6245729;22;45191;-77
2021/12/18 01:25:30;;;;;;;;;46.00;37.25;;;;;5.69;89.71;103471.84;6257286;22;45235;-77
2021/12/18 01:27:55;;;;;;;;;43.75;36.50;;;;;5.74;89.55;103486.69;6255312;22;45277;-76
2021/12/18 01:30:20;;;;;;;;;54.75;38.50;;;;;5.69;89.76;103487.47;6220044;22;45550;-78
2021/12/18 01:32:46;;;;;;;;;54.00;40.50;;;;;5.81;89.84;103519.84;6245617;22;45306;-78
2021/12/18 01:35:12;;;;;;;;;49.25;39.75;;;;;5.77;89.72;103507.59;6244242;22;45172;-77
2021/12/18 01:37:40;;;;;;;;;48.00;39.25;;;;;5.60;89.86;103489.88;6216038;22;45280;-76
2021/12/18 01:40:05;;;;;;;;;50.25;41.00;;;;;5.69;89.94;103510.03;6241765;22;45335;-76
2021/12/18 01:52:35;;;;;;;;;56.75;41.50;;;;;5.41;90.18;103498.09;6242438;22;45200;-77
2021/12/18 01:55:00;;;;;;;;;56.00;42.75;;;;;5.15;89.96;103464.47;6242605;22;45274;-78
2021/12/18 01:57:26;;;;;;;;;58.75;44.25;;;;;5.51;90.08;103523.53;6242746;22;45284;-76
2021/12/18 01:59:52;;;;;;;;;56.50;44.00;;;;;5.48;90.11;103531.25;6242023;22;45449;-77
2021/12/18 02:02:18;;;;;;;;;65.00;43.50;;;;;5.24;90.25;103497.66;6214827;22;46730;-75
2021/12/18 02:04:44;;;;;;;;;57.00;40.75;;;;;5.45;90.07;103533.78;6242200;22;45162;-78
2021/12/18 02:07:10;;;;;;;;;56.00;43.25;;;;;5.43;90.38;103535.47;6242753;22;45274;-77
2021/12/18 02:12:25;;;;;;;;;63.25;46.00;;;;;5.28;90.45;103516.00;6242260;22;45201;-76
2021/12/18 02:20:37;;;;;;;;;55.25;41.00;;;;;5.23;90.01;103494.19;6242218;22;45166;-77
2021/12/18 02:23:04;;;;;;;;;65.00;48.00;;;;;5.45;89.79;103532.03;6241931;22;46051;-77
2021/12/18 02:25:35;;;;;;;;;61.50;44.25;;;;;5.30;90.18;103509.13;6240262;22;45266;-77
2021/12/18 02:28:00;;;;;;;;;59.75;43.50;;;;;5.43;90.01;103527.66;6242823;22;45158;-78
2021/12/18 02:30:26;;;;;;;;;65.75;45.50;;;;;5.28;89.99;103509.94;6242536;22;45279;-77
2021/12/18 02:32:53;;;;;;;;;62.75;46.00;;;;;5.30;90.23;103506.50;6242496;22;45528;-77
2021/12/18 02:35:29;;;;;;;;;50.50;40.75;;;;;5.04;90.08;103459.00;6242540;22;45335;-76
2021/12/18 02:38:23;;;;;;;;;57.75;38.50;;;;;5.40;90.23;103519.75;6242421;22;45217;-76
2021/12/18 02:41:11;;;;;;;;;65.25;45.50;;;;;5.40;90.09;103518.06;6241728;22;45269;-77
2021/12/18 02:43:40;;;;;;;;;62.00;48.00;;;;;5.25;90.30;103481.22;6241550;22;46275;-76
2021/12/18 02:46:07;;;;;;;;;57.00;42.75;;;;;5.17;89.95;103467.13;6242284;22;45298;-76
2021/12/18 02:48:39;;;;;;;;;64.25;47.50;;;;;5.46;90.03;103512.09;6241848;22;45306;-76
2021/12/18 02:51:06;;;;;;;;;56.00;41.75;;;;;5.28;90.03;103484.78;6241717;22;45326;-76
2021/12/18 02:53:33;;;;;;;;;61.25;46.75;;;;;5.43;89.87;103501.59;6242379;22;45286;-76
2021/12/18 02:56:03;;;;;;;;;65.75;50.00;;;;;5.55;89.58;103512.31;6214942;22;45213;-77
2021/12/18 02:58:30;;;;;;;;;66.00;46.25;;;;;5.49;89.35;103504.38;6241823;22;45224;-76
2021/12/18 03:00:58;;;;;;;;;64.75;46.00;;;;;5.59;89.88;103519.34;6241175;22;45288;-77
2021/12/18 03:03:27;;;;;;;;;63.50;47.75;;;;;5.30;89.36;103464.00;6242440;22;45239;-76
2021/12/18 03:06:20;;;;;;;;;59.75;48.50;;;;;5.11;89.27;103431.41;6214522;22;45258;-78
2021/12/18 03:25:16;;;;;;;;;59.00;45.00;;;;;5.57;88.97;103473.28;6246128;22;45311;-79
2021/12/18 03:27:43;;;;;;;;;60.50;45.75;;;;;5.82;88.78;103501.66;6244573;22;45260;-76
2021/12/18 03:30:09;;;;;;;;;60.25;45.75;;;;;5.77;88.70;103490.22;6244828;22;45320;-77
2021/12/18 03:32:34;;;;;;;;;62.25;47.75;;;;;5.94;88.32;103505.38;6245426;22;45190;-77
2021/12/18 03:35:00;;;;;;;;;56.50;39.75;;;;;5.96;88.22;103494.16;6244976;22;45365;-78
2021/12/18 03:37:25;;;;;;;;;55.00;46.50;;;;;6.01;88.23;103496.88;6245770;22;45189;-77
2021/12/18 03:39:50;;;;;;;;;60.75;48.75;;;;;5.86;88.04;103460.91;6243784;22;45461;-77
2021/12/18 03:42:16;;;;;;;;;54.25;42.25;;;;;5.76;87.57;103446.81;6243581;22;45121;-78
2021/12/18 03:44:42;;;;;;;;;55.75;44.50;;;;;6.07;87.86;103491.78;6243309;22;45325;-78
2021/12/18 03:47:08;;;;;;;;;58.50;44.75;;;;;6.08;87.62;103489.22;6215765;22;45370;-76
2021/12/18 03:49:34;;;;;;;;;57.75;45.50;;;;;5.81;87.84;103445.19;6243072;22;45287;-77
2021/12/18 03:51:59;;;;;;;;;66.00;49.25;;;;;6.05;87.47;103478.72;6242810;22;45260;-77
2021/12/18 03:54:25;;;;;;;;;54.50;40.00;;;;;6.16;87.31;103491.97;6243207;22;45247;-77
2021/12/18 03:56:51;;;;;;;;;66.25;48.75;;;;;6.19;87.30;103492.06;6242915;22;45269;-77
2021/12/18 03:59:17;;;;;;;;;64.25;47.00;;;;;6.18;87.14;103484.19;6242797;22;45462;-77
2021/12/18 04:01:43;;;;;;;;;63.50;46.00;;;;;6.15;87.18;103474.59;6243095;22;45292;-77
2021/12/18 04:04:09;;;;;;;;;58.00;45.25;;;;;6.28;86.90;103488.75;6215548;22;47242;-77
2021/12/18 04:06:37;;;;;;;;;61.00;46.00;;;;;6.26;86.70;103485.25;6243429;22;45332;-77
2021/12/18 04:09:03;;;;;;;;;60.75;47.00;;;;;5.93;86.58;103422.84;6243237;22;45296;-76
2021/12/18 04:11:29;;;;;;;;;62.00;47.00;;;;;6.38;86.27;103501.13;6243954;22;45288;-77
2021/12/18 04:13:55;;;;;;;;;60.50;48.75;;;;;5.86;86.49;103417.50;6246926;22;44906;-77
2021/12/18 04:16:21;;;;;;;;;63.75;46.50;;;;;6.45;86.18;103509.97;6250157;22;45196;-77
2021/12/18 04:18:46;;;;;;;;;57.25;45.75;;;;;6.46;86.08;103502.16;6244972;22;45379;-76
2021/12/18 04:21:12;;;;;;;;;57.75;43.50;;;;;6.50;86.09;103497.00;6243827;22;45269;-78
2021/12/18 04:23:37;;;;;;;;;56.25;45.00;;;;;6.23;85.99;103446.06;6243452;22;45328;-77
2021/12/18 04:26:03;;;;;;;;;60.50;45.75;;;;;6.52;85.78;103497.91;6242492;22;45176;-77
2021/12/18 04:28:28;;;;;;;;;57.25;40.00;;;;;6.53;85.98;103492.72;6243520;22;45244;-76
2021/12/18 04:30:54;;;;;;;;;59.00;47.00;;;;;6.35;85.42;103469.78;6242458;22;45450;-77
2021/12/18 04:33:19;;;;;;;;;64.25;48.00;;;;;6.54;85.49;103498.81;6242199;22;46286;-77
2021/12/18 04:35:45;;;;;;;;;64.25;47.50;;;;;6.44;85.63;103477.78;6243115;22;45307;-77
2021/12/18 04:38:10;;;;;;;;;59.75;46.50;;;;;6.56;85.47;103497.13;6242707;22;45550;-77
2021/12/18 04:40:36;;;;;;;;;62.50;48.75;;;;;6.57;85.46;103494.56;6243655;22;45256;-78
2021/12/18 04:43:03;;;;;;;;;58.75;45.75;;;;;6.51;85.54;103480.50;6243377;22;45556;-77
2021/12/18 04:45:29;;;;;;;;;57.00;46.75;;;;;6.60;85.29;103493.72;6243551;22;45250;-76
2021/12/18 04:47:55;;;;;;;;;61.00;45.75;;;;;6.32;85.01;103446.25;6243214;22;45302;-76
2021/12/18 04:50:23;;;;;;;;;59.25;44.50;;;;;6.47;84.96;103470.00;6242909;22;45253;-77
2021/12/18 04:52:49;;;;;;;;;60.50;46.25;;;;;5.58;85.26;103318.75;6244160;22;47174;-77
2021/12/18 04:55:15;;;;;;;;;62.00;47.25;;;;;6.55;85.27;103483.19;6245248;22;45307;-75
2021/12/18 04:57:40;;;;;;;;;61.75;43.25;;;;;6.52;85.35;103483.16;6244797;22;45107;-75
2021/12/18 05:00:08;;;;;;;;;57.25;43.50;;;;;6.55;85.47;103488.41;6244933;22;45110;-77
2021/12/18 05:02:38;;;;;;;;;63.75;48.75;;;;;6.56;85.66;103486.69;6244468;22;46270;-77
2021/12/18 05:05:04;;;;;;;;;66.75;47.00;;;;;6.44;85.17;103469.06;6244665;22;45268;-76
2021/12/18 05:07:31;;;;;;;;;49.50;41.50;;;;;6.52;85.34;103490.09;6219006;22;45258;-76
2021/12/18 05:09:56;;;;;;;;;55.00;45.00;;;;;6.50;85.19;103490.03;6244651;22;45160;-77
2021/12/18 05:12:22;;;;;;;;;57.50;43.00;;;;;6.49;85.45;103490.91;6245343;22;45950;-77
2021/12/18 05:14:47;;;;;;;;;64.75;46.25;;;;;6.43;85.47;103472.53;6243041;22;45281;-79
2021/12/18 05:17:13;;;;;;;;;49.75;40.00;;;;;6.51;85.42;103501.38;6243575;22;45165;-74
2021/12/18 05:19:38;;;;;;;;;60.00;44.50;;;;;6.52;85.34;103492.69;6243203;22;45367;-77
2021/12/18 05:22:04;;;;;;;;;55.00;43.50;;;;;6.51;85.58;103491.81;6243544;22;45256;-77
2021/12/18 05:24:30;;;;;;;;;57.25;43.50;;;;;6.40;85.89;103467.28;6242288;22;45252;-75
2021/12/18 05:26:55;;;;;;;;;57.75;45.50;;;;;6.51;85.34;103494.44;6242518;22;45188;-77
2021/12/18 05:29:21;;;;;;;;;52.25;42.25;;;;;6.51;85.50;103498.78;6242822;22;45350;-76
2021/12/18 05:31:46;;;;;;;;;59.00;45.00;;;;;6.38;85.21;103476.81;6242546;22;45350;-77
2021/12/18 05:34:20;;;;;;;;;60.50;46.25;;;;;6.44;85.60;103489.94;6242797;22;45255;-77
2021/12/18 05:39:21;;;;;;;;;50.00;40.00;;;;;6.17;85.71;103448.56;6242584;22;45386;-78
2021/12/18 05:41:49;;;;;;;;;48.50;40.50;;;;;6.24;85.34;103463.47;6242880;22;45372;-77
2021/12/18 05:44:15;;;;;;;;;64.25;45.75;;;;;6.49;85.56;103516.13;6241883;22;45233;-77
2021/12/18 05:46:40;;;;;;;;;55.75;42.50;;;;;6.47;85.57;103510.88;6242632;22;45148;-77
2021/12/18 05:49:05;;;;;;;;;66.75;46.75;;;;;5.35;85.34;103319.19;6242880;22;45271;-78
2021/12/18 05:51:32;;;;;;;;;57.50;40.75;;;;;6.49;85.53;103510.91;6242990;22;45150;-78
2021/12/18 05:53:57;;;;;;;;;54.25;41.25;;;;;6.50;85.68;103513.53;6216016;22;45431;-79
2021/12/18 05:56:22;;;;;;;;;61.75;47.50;;;;;6.04;85.52;103436.97;6243099;22;45810;-77
2021/12/18 05:58:48;;;;;;;;;59.00;44.00;;;;;6.50;85.21;103515.25;6241720;22;45377;-78
2021/12/18 06:01:18;;;;;;;;;55.00;41.50;;;;;6.40;85.60;103501.16;6242361;22;46822;-84
2021/12/18 06:03:44;;;;;;;;;54.25;43.50;;;;;5.83;85.52;103404.41;6215665;22;45130;-79
2021/12/18 06:06:10;;;;;;;;;58.25;45.25;;;;;6.48;85.77;103517.84;6243047;22;45181;-77
2021/12/18 06:08:36;;;;;;;;;63.00;43.50;;;;;6.39;85.42;103502.00;6243179;22;45239;-78
2021/12/18 06:11:15;;;;;;;;;53.75;40.75;;;;;6.34;85.49;103491.47;6241913;22;45671;-78
2021/12/18 06:13:41;;;;;;;;;50.00;41.75;;;;;6.48;85.75;103517.84;6241837;22;45277;-79
2021/12/18 06:16:07;;;;;;;;;49.75;40.75;;;;;6.25;85.86;103462.63;6242936;22;45268;-78
2021/12/18 06:18:40;;;;;;;;;49.00;40.25;;;;;6.54;85.43;103506.63;6242735;22;45320;-77
2021/12/18 06:21:05;;;;;;;;;55.25;38.75;;;;;6.47;85.87;103503.06;6242014;22;46101;-76
2021/12/18 06:23:31;;;;;;;;;53.25;41.75;;;;;6.41;85.54;103479.44;6242710;22;45238;-80
2021/12/18 06:25:57;;;;;;;;;46.75;37.25;;;;;6.56;85.72;103507.56;6242991;22;45261;-81
2021/12/18 06:28:22;;;;;;;;;57.50;42.25;;;;;6.58;85.83;103511.97;6242393;22;45246;-80
2021/12/18 06:30:49;;;;;;;;;56.25;39.75;;;;;6.60;85.87;103506.78;6242682;22;45954;-80
2021/12/18 06:33:14;;;;;;;;;44.50;38.25;;;;;6.60;85.62;103512.84;6241144;22;45323;-78
2021/12/18 06:35:40;;;;;;;;;48.00;40.75;;;;;6.59;85.65;103507.59;6244713;22;45272;-78
2021/12/18 06:38:07;;;;;;;;;48.50;36.75;;;;;6.60;85.88;103519.81;6243708;22;45185;-80
2021/12/18 06:40:33;;;;;;;;;45.25;39.00;;;;;6.53;85.97;103495.34;6250929;22;45384;-76
2021/12/18 06:42:58;;;;;;;;;45.50;38.00;;;;;6.64;85.94;103514.69;6251140;22;44728;-75
2021/12/18 06:45:24;;;;;;;;;46.75;39.50;;;;;6.31;85.92;103456.63;6254578;22;45257;-77
2021/12/18 06:47:49;;;;;;;;;56.25;42.75;;;;;6.67;85.69;103521.69;6256812;22;45299;-78
2021/12/18 06:50:15;;;;;;;;;48.50;41.50;;;;;6.65;85.81;103519.06;6248519;22;45262;-76
2021/12/18 06:52:40;;;;;;;;;48.75;39.00;;;;;6.65;86.28;103515.56;6243944;22;45224;-77
2021/12/18 06:55:07;;;;;;;;;47.25;36.75;;;;;6.57;86.13;103496.28;6243260;22;45636;-77
2021/12/18 06:57:32;;;;;;;;;41.00;35.50;;;;;6.66;85.86;103515.59;6242312;22;45379;-76
2021/12/18 06:59:58;;;;;;;;;47.00;36.50;;;;;6.66;85.85;103513.00;6243193;22;45217;-76
2021/12/18 07:02:23;;;;;;;;;43.50;36.00;;;;;6.39;85.60;103474.19;6254603;22;45253;-75
2021/12/18 07:04:48;;;;;;;;;39.75;31.00;;;;;6.53;86.12;103500.53;6253035;22;45168;-76
2021/12/18 07:07:14;;;;;;;;;50.25;36.75;;;;;6.70;85.93;103520.84;6248115;22;45221;-77
2021/12/18 07:09:40;;;;;;;;;44.00;33.50;;;;;6.55;86.03;103500.59;6216056;22;45903;-77
2021/12/18 07:12:05;;;;;;;;;44.50;38.50;;;;;6.68;86.08;103513.03;6244015;22;45225;-77
2021/12/18 07:14:31;;;;;;;;;50.25;37.75;;;;;6.70;85.93;103518.25;6243517;22;45260;-78
2021/12/18 07:16:56;;;;;;;;;48.25;39.00;;;;;6.68;85.62;103520.84;6243815;22;45271;-77
2021/12/18 07:19:22;;;;;;;;;42.25;33.00;;;;;6.68;85.54;103519.97;6243024;22;46065;-77
2021/12/18 07:21:47;;;;;;;;;48.00;39.75;;;;;6.66;85.62;103525.13;6243330;22;45380;-77
2021/12/18 07:24:12;;;;;;;;;52.00;37.00;;;;;6.46;85.59;103499.53;6244271;22;45333;-78
2021/12/18 07:26:38;;;;;;;;;41.25;33.75;;;;;6.15;85.47;103445.91;6241332;22;45428;-77
2021/12/18 07:29:04;;;;;;;;;37.00;30.00;;;;;6.41;85.46;103487.25;6215824;22;46973;-76
2021/12/18 07:31:29;;;;;;;;;45.25;37.50;;;;;6.70;85.48;103533.91;6244003;22;45252;-77
2021/12/18 07:33:55;;;;;;;;;48.75;36.00;;;;;6.68;85.51;103536.50;6242653;22;45356;-77
2021/12/18 07:36:20;;;;;;;;;41.75;36.00;;;;;6.68;85.63;103536.50;6242776;22;45280;-77
2021/12/18 07:38:46;;;;;;;;;46.75;36.00;;;;;6.43;85.53;103488.16;6243099;22;45910;-77
2021/12/18 07:41:11;;;;;;;;;48.00;35.50;;;;;6.76;85.54;103534.91;6243486;22;45286;-76
2021/12/18 07:43:37;;;;;;;;;53.00;38.00;;;;;6.78;85.56;103537.56;6243569;22;45244;-77
2021/12/18 07:46:03;;;;;;;;;45.75;38.50;;;;;6.78;85.38;103537.56;6243725;22;45208;-79
2021/12/18 07:48:28;;;;;;;;;40.00;34.50;;;;;6.78;85.03;103542.78;6242813;22;45998;-76
2021/12/18 07:50:54;;;;;;;;;43.25;35.50;;;;;6.77;84.95;103543.59;6243324;22;45134;-76
2021/12/18 07:53:21;;;;;;;;;43.75;38.00;;;;;6.63;85.29;103522.50;6243468;22;45073;-79
2021/12/18 07:55:47;;;;;;;;;43.50;37.75;;;;;6.59;85.26;103512.81;6215700;22;45431;-77
2021/12/18 07:58:12;;;;;;;;;51.25;38.00;;;;;6.53;84.92;103516.19;6242647;22;45347;-78
2021/12/18 08:00:37;;;;;;;;;36.75;34.00;;;;;6.78;85.10;103556.69;6243321;22;45324;-74
2021/12/18 08:03:03;;;;;;;;;50.25;34.75;;;;;6.57;84.77;103517.13;6242422;22;45252;-73
2021/12/18 08:05:28;;;;;;;;;43.00;36.75;;;;;6.69;85.13;103546.06;6243187;22;45289;-74
2021/12/18 08:07:54;;;;;;;;;37.75;30.75;;;;;6.77;85.00;103554.94;6243982;22;45359;-74
2021/12/18 08:10:19;;;;;;;;;45.50;36.50;;;;;6.46;84.61;103504.75;6244836;22;45324;-74
2021/12/18 08:12:44;;;;;;;;;45.50;36.50;;;;;6.78;84.95;103559.28;6243303;22;45193;-74
2021/12/18 08:15:10;;;;;;;;;38.50;31.00;;;;;6.47;84.88;103490.00;6242289;22;45415;-74
2021/12/18 08:17:37;;;;;;;;;42.25;36.25;;;;;6.79;84.95;103560.19;6242938;22;45350;-75
2021/12/18 08:20:04;;;;;;;;;52.00;35.50;;;;;6.81;85.16;103561.09;6242333;22;45355;-75
2021/12/18 08:22:30;;;;;;;;;47.25;39.00;;;;;6.84;84.88;103550.72;6242538;22;45262;-74
2021/12/18 08:24:55;;;;;;;;;46.25;37.25;;;;;6.61;84.84;103512.03;6242991;22;45115;-75
2021/12/18 08:27:21;;;;;;;;;51.50;37.75;;;;;6.85;84.79;103548.13;6216059;22;45285;-73
2021/12/18 08:29:46;;;;;;;;;48.75;36.25;;;;;6.90;85.12;103555.19;6243010;22;45215;-74
2021/12/18 08:32:12;;;;;;;;;45.50;36.50;;;;;6.93;84.92;103553.50;6243491;22;45284;-75
2021/12/18 08:34:37;;;;;;;;;43.75;37.25;;;;;6.46;84.83;103469.97;6242723;22;45472;-76
2021/12/18 08:37:03;;;;;;;;;45.75;39.00;;;;;6.78;84.81;103508.84;6243096;22;45944;-74
2021/12/18 08:39:28;;;;;;;;;47.75;38.00;;;;;7.05;84.67;103545.00;6243180;22;45275;-74
2021/12/18 08:41:54;;;;;;;;;49.50;40.50;;;;;7.08;84.45;103545.06;6243134;22;45188;-76
2021/12/18 08:44:19;;;;;;;;;49.00;37.75;;;;;7.11;84.28;103547.75;6242937;22;45239;-75
2021/12/18 08:46:46;;;;;;;;;54.50;40.75;;;;;7.09;84.31;103535.50;6242873;22;45935;-75
2021/12/18 08:49:12;;;;;;;;;44.00;38.50;;;;;7.09;84.35;103530.28;6242470;22;45361;-74
2021/12/18 08:51:38;;;;;;;;;44.00;32.75;;;;;7.21;84.42;103547.06;6243258;22;45251;-75
2021/12/18 08:54:05;;;;;;;;;42.50;34.75;;;;;6.79;84.20;103468.88;6242565;22;45287;-74
2021/12/18 08:56:31;;;;;;;;;48.50;39.50;;;;;7.16;83.98;103537.34;6215025;22;45961;-75
2021/12/18 08:58:58;;;;;;;;;47.25;39.00;;;;;7.12;84.09;103533.81;6243145;22;45156;-75
2021/12/18 09:01:27;;;;;;;;;50.25;40.00;;;;;7.24;84.37;103552.31;6242455;22;45381;-76
2021/12/18 09:03:53;;;;;;;;;53.75;42.75;;;;;7.30;83.99;103545.44;6242652;22;45219;-75
2021/12/18 09:06:20;;;;;;;;;45.50;39.00;;;;;7.34;83.73;103542.03;6242491;22;45211;-75
2021/12/18 09:08:45;;;;;;;;;42.50;36.00;;;;;7.25;83.59;103524.50;6242812;22;45295;-74
2021/12/18 09:11:10;;;;;;;;;50.75;38.25;;;;;7.30;83.34;103514.09;6242707;22;45196;-73
2021/12/18 09:13:36;;;;;;;;;55.25;43.75;;;;;7.30;83.43;103520.22;6242725;22;45272;-75
2021/12/18 09:16:01;;;;;;;;;47.25;34.50;;;;;7.38;83.28;103542.09;6241974;22;46225;-75
2021/12/18 09:18:27;;;;;;;;;53.75;39.00;;;;;7.38;83.22;103539.50;6241982;22;45326;-75
2021/12/18 09:20:52;;;;;;;;;44.00;37.25;;;;;7.37;83.16;103535.13;6242541;22;45407;-75
2021/12/18 09:23:19;;;;;;;;;54.00;39.75;;;;;7.40;83.59;103536.91;6242062;22;45340;-74
2021/12/18 09:25:45;;;;;;;;;57.25;40.50;;;;;7.42;83.25;103533.44;6241822;22;46409;-74
2021/12/18 09:28:11;;;;;;;;;45.75;37.25;;;;;7.42;83.37;103537.81;6242556;22;45244;-74
2021/12/18 09:30:36;;;;;;;;;41.75;35.75;;;;;7.41;83.46;103533.47;6242815;22;45178;-75
2021/12/18 09:33:02;;;;;;;;;48.00;38.75;;;;;7.42;82.97;103540.41;6241292;22;45386;-74
2021/12/18 09:35:28;;;;;;;;;40.75;35.50;;;;;7.41;83.34;103547.38;6242543;22;46271;-75
2021/12/18 09:37:53;;;;;;;;;52.75;41.00;;;;;7.42;83.29;103546.50;6214890;22;45206;-76
2021/12/18 09:40:20;;;;;;;;;46.00;36.50;;;;;7.29;83.25;103522.81;6243593;22;45861;-71
2021/12/18 09:42:46;;;;;;;;;44.75;35.25;;;;;7.42;83.06;103548.25;6215375;22;45463;-71
2021/12/18 09:45:14;;;;;;;;;48.75;39.00;;;;;7.28;83.51;103528.88;6242658;22;45301;-72
2021/12/18 09:47:40;;;;;;;;;50.00;39.25;;;;;7.42;83.24;103548.25;6242955;22;45275;-72
2021/12/18 09:50:07;;;;;;;;;54.00;39.00;;;;;7.29;83.12;103522.81;6215475;22;45316;-72
2021/12/18 09:52:35;;;;;;;;;44.00;38.50;;;;;7.23;83.03;103500.09;6244592;22;45253;-71
2021/12/18 09:55:01;;;;;;;;;44.00;36.50;;;;;7.35;82.81;103522.88;6216358;22;48190;-72
2021/12/18 09:57:26;;;;;;;;;52.25;37.50;;;;;7.58;82.63;103549.38;6241820;22;45267;-72
2021/12/18 09:59:52;;;;;;;;;42.00;35.00;;;;;7.54;82.61;103538.00;6243150;22;45149;-73
2021/12/18 10:02:18;;;;;;;;;47.25;38.50;;;;;7.57;82.27;103537.19;6242724;22;45367;-73
2021/12/18 10:04:44;;;;;;;;;46.00;36.25;;;;;7.52;82.37;103520.56;6242405;22;46383;-71
2021/12/18 10:07:22;;;;;;;;;53.25;40.50;;;;;7.75;82.43;103547.91;6242726;22;45238;-72
2021/12/18 10:09:58;;;;;;;;;46.75;38.00;;;;;7.50;82.46;103501.38;6242721;22;45204;-72
2021/12/18 10:12:32;;;;;;;;;51.50;38.00;;;;;7.80;82.37;103555.84;6241881;22;45150;-72
2021/12/18 10:15:05;;;;;;;;;47.50;39.75;;;;;7.60;81.92;103505.88;6242337;22;46117;-72
2021/12/18 10:17:35;;;;;;;;;43.75;36.00;;;;;7.83;81.83;103552.38;6242652;22;45244;-71
2021/12/18 10:20:09;;;;;;;;;47.75;38.25;;;;;7.85;82.10;103554.16;6242340;22;45231;-73
2021/12/18 10:22:35;;;;;;;;;49.75;41.25;;;;;7.86;81.86;103544.59;6242871;22;45331;-71
2021/12/18 10:25:06;;;;;;;;;45.50;36.25;;;;;7.81;81.91;103532.31;6240323;22;45904;-71
2021/12/18 10:27:32;;;;;;;;;45.75;38.00;;;;;7.85;82.10;103534.97;6242814;22;45229;-71
2021/12/18 10:30:30;;;;;;;;;44.00;39.00;;;;;7.87;81.94;103544.63;6242519;22;45172;-72
2021/12/18 10:33:03;;;;;;;;;51.50;38.75;;;;;7.84;81.63;103546.31;6119744;23;45158;-72
2021/12/18 10:35:52;;;;;;;;;47.75;38.50;;;;;7.85;81.85;103543.69;6118607;23;46274;-72
2021/12/18 10:38:37;;;;;;;;;47.00;38.00;;;;;7.85;82.30;103540.22;6093960;23;45237;-73
2021/12/18 10:41:28;;;;;;;;;42.50;38.00;;;;;7.86;82.12;103539.38;6094093;23;45339;-72
2021/12/18 10:44:09;;;;;;;;;55.00;38.00;;;;;7.88;82.45;103540.25;6092854;23;45405;-71
2021/12/18 10:46:38;;;;;;;;;56.75;39.00;;;;;7.87;82.32;103541.09;6118874;23;46115;-73
2021/12/18 10:49:07;;;;;;;;;42.25;37.25;;;;;7.93;82.05;103543.81;6094592;23;45340;-73
2021/12/18 10:51:34;;;;;;;;;46.25;35.50;;;;;7.97;82.11;103540.38;6119776;23;45271;-72
2021/12/18 10:54:00;;;;;;;;;51.75;37.75;;;;;7.71;82.04;103490.34;6119368;23;45447;-71
2021/12/18 10:56:38;;;;;;;;;42.25;34.75;;;;;7.68;81.75;103483.34;6118635;23;45291;-72
2021/12/18 10:59:18;;;;;;;;;48.00;37.50;;;;;8.04;81.90;103541.34;6118653;23;45221;-72
2021/12/18 11:01:49;;;;;;;;;53.25;41.50;;;;;8.08;81.90;103540.53;6118480;23;45379;-72
2021/12/18 11:04:23;;;;;;;;;42.00;36.00;;;;;7.81;81.68;103495.72;6118948;23;45319;-73
2021/12/18 11:06:49;;;;;;;;;48.50;37.75;;;;;8.07;82.16;103531.81;6118088;23;46071;-72
2021/12/18 11:09:17;;;;;;;;;50.75;37.75;;;;;7.84;82.13;103483.56;6217175;22;45267;-71
2021/12/18 11:14:18;;;;;;;;;41.25;38.00;;;;;8.12;82.16;103531.88;6241614;22;45287;-72
2021/12/18 11:16:50;;;;;;;;;45.50;35.00;;;;;8.02;82.23;103512.56;6241943;22;45537;-72
2021/12/18 11:19:21;;;;;;;;;47.00;36.25;;;;;8.12;82.62;103529.28;6214285;22;44634;-73
2021/12/18 11:21:50;;;;;;;;;45.25;37.75;;;;;8.11;82.67;103522.28;6241316;22;45240;-72
2021/12/18 11:24:16;;;;;;;;;45.00;38.25;;;;;8.19;82.40;103533.72;6241229;22;45245;-73
2021/12/18 11:26:49;;;;;;;;;40.50;33.75;;;;;8.23;82.36;103518.94;6241631;22;45264;-72
2021/12/18 11:29:40;;;;;;;;;44.50;30.25;;;;;8.22;82.25;103527.63;6242082;22;45239;-71
2021/12/18 11:32:16;;;;;;;;;34.50;30.50;;;;;8.13;82.25;103503.13;6242008;22;45236;-71
2021/12/18 11:34:46;;;;;;;;;39.50;34.00;;;;;8.23;82.48;103511.09;6213836;22;45738;-73
2021/12/18 11:37:14;;;;;;;;;41.75;33.75;;;;;8.02;82.68;103465.50;6240898;22;45248;-72
2021/12/18 11:39:41;;;;;;;;;39.25;30.50;;;;;8.26;82.65;103498.03;6241717;22;45331;-72
2021/12/18 11:42:08;;;;;;;;;33.00;30.00;;;;;8.26;82.47;103503.28;6241918;22;45245;-71
2021/12/18 11:44:40;;;;;;;;;43.75;33.75;;;;;8.29;82.18;103508.53;6241776;22;45165;-72
2021/12/18 11:47:26;;;;;;;;;35.00;30.75;;;;;8.31;82.59;103504.22;6240754;22;46341;-71
2021/12/18 11:49:56;;;;;;;;;33.50;28.50;;;;;8.32;82.67;103503.38;6241596;22;45251;-70
2021/12/18 11:52:22;;;;;;;;;46.50;33.75;;;;;8.33;82.68;103500.78;6240934;22;45534;-70
2021/12/18 11:54:52;;;;;;;;;32.25;28.00;;;;;8.36;83.15;103498.16;6241498;22;45181;-71
2021/12/18 11:57:36;;;;;;;;;33.25;27.75;;;;;8.40;82.86;103487.75;6241837;22;45867;-70
2021/12/18 12:00:34;;;;;;;;;33.75;31.75;;;;;8.22;82.89;103449.19;6242361;22;45303;-71
2021/12/18 12:03:01;;;;;;;;;35.00;33.00;;;;;8.37;82.61;103480.75;6243347;22;45174;-70
2021/12/18 12:05:37;;;;;;;;;27.50;23.25;;;;;8.15;82.69;103432.53;6243002;22;45102;-75
2021/12/18 12:08:30;;;;;;;;;37.25;25.50;;;;;8.46;82.48;103470.41;6242827;22;46142;-75
2021/12/18 12:11:17;;;;;;;;;31.25;25.75;;;;;8.45;82.29;103468.66;6215755;22;45195;-74